Ann Arbor, MI

1:49 PM EDT on September 02, 2015 (GMT -0400)
Walker Briar Works | | Change Station
CLOSE
Current Station
Personal Weather Station
Location: Ann Arbor, MI
Elevation: 961 ft
Nearby Weather Stations

Elev 961 ft 42.26 °N, 83.77 °W | Updated 9 minutes ago

Clear
Clear
82.2 °F
Feels Like 90 °F
N
0.0
Wind Variable Wind from South
Gusts 3.1 mph

Today
High -- | Low -- °F
--% Chance of Precip.
Yesterday
High -- | Low -- °F
Precip. -- in
7:01 AM 8:07 PM
Waning Gibbous, 78% visible
Pressure 30.03 in
Visibility 9.0 miles
Clouds Clear
Heat Index 90 °F
Dew Point 77 °F
Humidity 83%
Rainfall 0.14 in
Snow Depth Not available.
UV 9 out of 12
Pollen 7.90 out of 12
Air Quality Not available.
Flu Activity Not available.
METAR KARB 021653Z 24007KT 9SM CLR 28/23 A3004 RMK AO2 SLP167 T02780228
Pressure 30.03 in
Visibility 9.0 miles
Clouds Clear
Heat Index 90 °F
Dew Point 77 °F
Humidity 83%
Rainfall 0.14 in
Snow Depth Not available.
UV 9 out of 12
Pollen 7.90 out of 12
Air Quality Not available.
Flu Activity Not available.
METAR KARB 021653Z 24007KT 9SM CLR 28/23 A3004 RMK AO2 SLP167 T02780228

10-Day Weather Forecast

×

Almanac

Astronomy

Sep. 02, 2015 Rise Set
Actual Time
Civil Twilight
Nautical Twilight
Astronomical Twilight
Moon
Length of Visible Light
Length of Day
Tomorrow will be .
, % of the Moon is Illuminated

Today's Extremes

State Highs State Lows

Community

WunderPhotos

Upload Photos

1,851,789 photos uploaded!

WunderBlogs® & News

Nearby

Air Quality

  Air Quality AQ Index Pollutant
Not available.

Snow Depth

Station Depth Elevation

Earthquake Activity

City Distance Mag. Time & Date
Minimum magnitude displayed is 2.5.

Coastal Water Temperatures

Place Temperature

Stations

Nearby Weather Stations

Station Location Temp. Windchill Dew Point Humidity Wind Precip. Elev Updated Type